createdAt,value
2022-09-12T00:01:27.398Z,49661.22
2022-09-12T00:04:00.280Z,49667.19
2022-09-12T00:06:30.076Z,49675.19
2022-09-12T00:08:59.658Z,49635.31
2022-09-12T00:11:27.275Z,49655.25
2022-09-12T00:13:59.168Z,49643.28
2022-09-12T00:16:28.485Z,49651.25
2022-09-12T00:18:55.214Z,49641.28
2022-09-12T00:21:22.778Z,49617.38
2022-09-12T00:23:49.719Z,49651.25
2022-09-12T00:26:17.661Z,49647.25
2022-09-12T00:28:45.300Z,49631.31
2022-09-12T00:31:14.904Z,49641.28
2022-09-12T00:33:42.245Z,49625.34
2022-09-12T00:36:15.358Z,49679.16
2022-09-12T00:38:43.079Z,49679.16
2022-09-12T00:41:32.737Z,49667.19
2022-09-12T00:44:05.722Z,49649.25
2022-09-12T00:46:41.914Z,49659.22
2022-09-12T00:49:33.049Z,49675.19
2022-09-12T00:52:13.305Z,49663.22
2022-09-12T00:55:03.916Z,49687.13
2022-09-12T00:57:35.998Z,49631.31
2022-09-12T01:00:13.608Z,49703.09
2022-09-12T01:02:41.009Z,49627.31
2022-09-12T01:05:08.920Z,49667.19
2022-09-12T01:07:39.908Z,49639.28
2022-09-12T01:10:09.698Z,49625.34
2022-09-12T01:12:40.383Z,49679.16
2022-09-12T01:15:07.421Z,49679.16
2022-09-12T01:17:48.987Z,49643.28
2022-09-12T01:20:18.530Z,49675.19
2022-09-12T01:22:59.145Z,49655.25
2022-09-12T01:25:28.696Z,49707.06
2022-09-12T01:28:40.377Z,49691.13
2022-09-12T01:31:30.299Z,49683.16
2022-09-12T01:34:21.730Z,49691.13
2022-09-12T01:37:05.111Z,49667.19
2022-09-12T01:39:50.186Z,49669.19
2022-09-12T01:42:37.068Z,49667.19
2022-09-12T01:45:16.560Z,49691.13
2022-09-12T01:47:50.175Z,49659.22
2022-09-12T01:50:24.568Z,49633.31
2022-09-12T01:53:23.672Z,49703.09
2022-09-12T01:55:57.788Z,49681.16
2022-09-12T01:58:36.428Z,49671.19
2022-09-12T02:01:08.495Z,49695.09
2022-09-12T02:03:44.949Z,49685.13
2022-09-12T02:06:33.678Z,49693.13
2022-09-12T02:09:16.294Z,49675.19
2022-09-12T02:11:44.786Z,49691.13
2022-09-12T02:14:43.440Z,49661.22
2022-09-12T02:17:13.096Z,49681.16
2022-09-12T02:20:03.207Z,49687.13
2022-09-12T02:22:31.637Z,49687.13
2022-09-12T02:25:01.190Z,49707.06
2022-09-12T02:27:37.988Z,49697.09
2022-09-12T02:30:08.814Z,49675.19
2022-09-12T02:32:50.046Z,49683.16
2022-09-12T02:35:31.222Z,49675.19
2022-09-12T02:38:05.394Z,49677.16
2022-09-12T02:40:33.344Z,49705.06
2022-09-12T02:43:00.622Z,49651.25
2022-09-12T02:45:27.603Z,49689.13
2022-09-12T02:48:05.481Z,49699.09
2022-09-12T02:50:32.170Z,49673.19
2022-09-12T02:53:04.335Z,49667.19
2022-09-12T02:55:36.459Z,49681.16
2022-09-12T02:58:05.391Z,49687.13
2022-09-12T03:00:38.983Z,49685.13
2022-09-12T03:03:24.148Z,49707.06
2022-09-12T03:05:59.478Z,49649.25
2022-09-12T03:08:38.907Z,49671.19
2022-09-12T03:11:17.380Z,49689.13
2022-09-12T03:14:21.188Z,49695.09
2022-09-12T03:17:32.370Z,49707.06
2022-09-12T03:20:41.999Z,49667.19
2022-09-12T03:23:31.402Z,49689.13
2022-09-12T03:26:06.843Z,49679.16
2022-09-12T03:28:35.689Z,49671.19
2022-09-12T03:31:13.352Z,49715.03
2022-09-12T03:33:40.028Z,49719.03
2022-09-12T03:36:07.024Z,49681.16
2022-09-12T03:38:33.644Z,49673.19
2022-09-12T03:41:01.277Z,49695.09
2022-09-12T03:43:27.860Z,49637.28
2022-09-12T03:45:54.595Z,49675.19
2022-09-12T03:48:21.229Z,49651.25
2022-09-12T03:50:47.833Z,49659.22
2022-09-12T03:53:17.276Z,49655.25
2022-09-12T03:55:44.446Z,49679.16
2022-09-12T03:58:11.066Z,49679.16
2022-09-12T04:00:39.226Z,49701.09
2022-09-12T04:03:05.794Z,49683.16
2022-09-12T04:05:32.368Z,49643.28
2022-09-12T04:07:58.964Z,49671.19
2022-09-12T04:10:25.610Z,49701.09
2022-09-12T04:12:52.265Z,49671.19
2022-09-12T04:15:18.986Z,49683.16
2022-09-12T04:17:45.592Z,49675.19
2022-09-12T04:20:12.450Z,49675.19
2022-09-12T04:22:39.153Z,49707.06
2022-09-12T04:25:06.384Z,49689.13
2022-09-12T04:27:33.053Z,49695.09
2022-09-12T04:30:01.190Z,49673.19
2022-09-12T04:32:30.942Z,49703.09
2022-09-12T04:34:58.064Z,49693.13
2022-09-12T04:37:24.810Z,49681.16
2022-09-12T04:39:51.838Z,49685.13
2022-09-12T04:42:18.619Z,49695.09
2022-09-12T04:44:45.224Z,49645.28
2022-09-12T04:47:11.819Z,49683.16
2022-09-12T04:49:38.388Z,49705.06
2022-09-12T04:52:05.091Z,49675.19
2022-09-12T04:54:31.886Z,49663.22
2022-09-12T04:56:59.042Z,49695.09
2022-09-12T04:59:26.535Z,49727.00
2022-09-12T05:01:53.255Z,49669.19
2022-09-12T05:04:19.925Z,49631.31
2022-09-12T05:06:47.442Z,49711.06
2022-09-12T05:09:14.648Z,49671.19
2022-09-12T05:14:32.472Z,49677.16
2022-09-12T05:17:01.337Z,49667.19
2022-09-12T05:19:30.172Z,49675.19
2022-09-12T05:21:57.007Z,49639.28
2022-09-12T05:24:24.503Z,49691.13
2022-09-12T05:26:51.304Z,49671.19
2022-09-12T05:29:18.024Z,49683.16
2022-09-12T05:31:44.600Z,49711.06
2022-09-12T05:34:11.339Z,49685.13
2022-09-12T05:36:38.713Z,49685.13
2022-09-12T05:39:05.733Z,49711.06
2022-09-12T05:41:33.961Z,49689.13
2022-09-12T05:44:02.921Z,49715.03
2022-09-12T05:46:32.032Z,49727.00
2022-09-12T05:49:03.984Z,49705.06
2022-09-12T05:51:34.232Z,49691.13
2022-09-12T05:54:03.330Z,49725.00
2022-09-12T05:56:32.318Z,49723.03
2022-09-12T05:59:04.674Z,49687.13
2022-09-12T06:01:33.357Z,49695.09
2022-09-12T06:04:02.235Z,49677.16
2022-09-12T06:06:30.280Z,49679.16
2022-09-12T06:08:59.754Z,49719.03
2022-09-12T06:11:28.941Z,49705.06
2022-09-12T06:13:57.455Z,49679.16
2022-09-12T06:16:26.740Z,49707.06
2022-09-12T06:19:17.415Z,49683.16
2022-09-12T06:21:44.759Z,49685.13
2022-09-12T06:24:11.496Z,49721.03
2022-09-12T06:26:38.253Z,49695.09
2022-09-12T06:29:05.020Z,49695.09
2022-09-12T06:31:37.145Z,49667.19
2022-09-12T06:34:06.575Z,49693.13
2022-09-12T06:36:36.925Z,49713.06
2022-09-12T06:39:12.799Z,49721.03
2022-09-12T06:41:43.657Z,49671.19
2022-09-12T06:44:19.538Z,49707.06
2022-09-12T06:46:46.399Z,49731.00
2022-09-12T06:49:13.673Z,49689.13
2022-09-12T06:51:42.130Z,49691.13
2022-09-12T06:54:12.197Z,49671.19
2022-09-12T06:56:38.921Z,49681.16
2022-09-12T06:59:05.561Z,49707.06
2022-09-12T07:01:32.673Z,49675.19
2022-09-12T07:04:03.907Z,49693.13
2022-09-12T07:06:36.243Z,49659.22
2022-09-12T07:09:05.770Z,49681.16
2022-09-12T07:11:35.321Z,49691.13
2022-09-12T07:14:03.710Z,49641.28
2022-09-12T07:16:30.702Z,49667.19
2022-09-12T07:18:59.912Z,49647.25
2022-09-12T07:21:27.190Z,49661.22
2022-09-12T07:23:58.004Z,49671.19
2022-09-12T07:26:26.913Z,49675.19
2022-09-12T07:29:07.909Z,49683.16
2022-09-12T07:31:42.396Z,49683.16
2022-09-12T07:34:09.101Z,49607.41
2022-09-12T07:36:36.103Z,49671.19
2022-09-12T07:39:02.908Z,49693.13
2022-09-12T07:41:33.559Z,49703.09
2022-09-12T07:44:02.689Z,49679.16
2022-09-12T07:46:30.946Z,49623.34
2022-09-12T07:48:59.277Z,49687.13
2022-09-12T07:51:27.671Z,49639.28
2022-09-12T07:53:54.957Z,49671.19
2022-09-12T07:56:25.023Z,49671.19
2022-09-12T07:58:54.747Z,49597.44
2022-09-12T08:01:25.143Z,49637.28
2022-09-12T08:03:57.297Z,49647.25
2022-09-12T08:06:25.949Z,49635.31
2022-09-12T08:08:55.241Z,49675.19
2022-09-12T08:11:23.053Z,49651.25
2022-09-12T08:13:54.792Z,49607.41
2022-09-12T08:16:24.496Z,49651.25
2022-09-12T08:18:51.297Z,49621.34
2022-09-12T08:21:23.247Z,49651.25
2022-09-12T08:24:01.820Z,49635.31
2022-09-12T08:26:28.997Z,49639.28
2022-09-12T08:28:55.817Z,49613.38
2022-09-12T08:31:24.745Z,49631.31
2022-09-12T08:33:51.985Z,49631.31
2022-09-12T08:36:21.555Z,49647.25
2022-09-12T08:38:50.831Z,49585.47
2022-09-12T08:41:30.316Z,49625.34
2022-09-12T08:44:30.770Z,49637.28
2022-09-12T08:47:25.083Z,49559.56
2022-09-12T08:49:59.380Z,49563.53
2022-09-12T08:52:46.213Z,49611.38
2022-09-12T08:55:25.519Z,49639.28
2022-09-12T08:57:52.727Z,49609.38
2022-09-12T09:00:21.419Z,49621.34
2022-09-12T09:03:10.838Z,49613.38
2022-09-12T09:06:07.202Z,49647.25
2022-09-12T09:08:48.716Z,49615.38
2022-09-12T09:11:26.614Z,49591.44
2022-09-12T09:14:26.917Z,49617.38
2022-09-12T09:16:56.215Z,49571.50
2022-09-12T09:19:31.163Z,49595.44
2022-09-12T09:22:01.390Z,49577.50
2022-09-12T09:24:36.609Z,49553.56
2022-09-12T09:27:29.820Z,49575.50
2022-09-12T09:29:57.618Z,49579.47
2022-09-12T09:32:37.625Z,49559.56
2022-09-12T09:35:38.038Z,49591.44
2022-09-12T09:38:29.235Z,49591.44
2022-09-12T09:41:19.699Z,49583.47
2022-09-12T09:43:46.562Z,49509.72
2022-09-12T09:46:14.246Z,49561.53
2022-09-12T09:48:43.908Z,49567.53
2022-09-12T09:51:10.947Z,49575.50
2022-09-12T09:53:44.440Z,49563.53
2022-09-12T09:56:33.752Z,49569.50
2022-09-12T09:59:12.069Z,49575.50
2022-09-12T10:01:49.735Z,49533.63
2022-09-12T10:04:28.213Z,49523.66
2022-09-12T10:07:01.123Z,49543.59
2022-09-12T10:09:30.601Z,49565.53
2022-09-12T10:11:57.428Z,49531.63
2022-09-12T10:14:36.861Z,49543.59
2022-09-12T10:17:23.325Z,49521.69
2022-09-12T10:20:10.470Z,49537.63
2022-09-12T10:22:38.490Z,49523.66
2022-09-12T10:25:12.453Z,49547.59
2022-09-12T10:27:41.466Z,49501.75
2022-09-12T10:30:18.706Z,49495.75
2022-09-12T10:32:50.630Z,49527.66
2022-09-12T10:35:22.205Z,49517.69
2022-09-12T10:38:07.237Z,49493.75
2022-09-12T10:40:43.231Z,49545.59
2022-09-12T10:43:43.160Z,49515.69
2022-09-12T10:46:16.000Z,49535.63
2022-09-12T10:48:44.049Z,49473.84
2022-09-12T10:51:27.383Z,49499.75
2022-09-12T10:53:57.569Z,49495.75
2022-09-12T10:56:29.142Z,49505.72
2022-09-12T10:59:07.323Z,49475.81
2022-09-12T11:01:45.316Z,49475.81
2022-09-12T11:04:39.654Z,49487.78
2022-09-12T11:07:27.036Z,49509.72
2022-09-12T11:09:53.975Z,49495.75
2022-09-12T11:12:25.305Z,49517.69
2022-09-12T11:14:58.399Z,49513.69
2022-09-12T11:17:31.182Z,49471.84
2022-09-12T11:20:16.626Z,49481.81
2022-09-12T11:23:00.955Z,49493.75
2022-09-12T11:25:35.069Z,49471.84
2022-09-12T11:28:23.675Z,49477.81
2022-09-12T11:30:59.179Z,49505.72
2022-09-12T11:33:42.839Z,49483.81
2022-09-12T11:36:32.571Z,49493.75
2022-09-12T11:39:09.027Z,49485.78
2022-09-12T11:41:49.881Z,49441.94
2022-09-12T11:44:24.592Z,49451.91
2022-09-12T11:46:52.240Z,49485.78
2022-09-12T11:49:47.173Z,49465.84
2022-09-12T11:52:21.244Z,49447.91
2022-09-12T11:54:59.701Z,49463.88
2022-09-12T11:57:53.976Z,49469.84
2022-09-12T12:00:31.757Z,49437.94
2022-09-12T12:03:13.741Z,49455.88
2022-09-12T12:05:52.242Z,49459.88
2022-09-12T12:08:21.254Z,49439.94
2022-09-12T12:10:53.922Z,49471.84
2022-09-12T12:13:28.568Z,49459.88
2022-09-12T12:15:59.109Z,49491.78
2022-09-12T12:18:28.300Z,49459.88
2022-09-12T12:20:56.997Z,49461.88
2022-09-12T12:23:33.424Z,49443.94
2022-09-12T12:26:02.012Z,49437.94
2022-09-12T12:28:50.814Z,49420.00
2022-09-12T12:31:18.226Z,49463.88
2022-09-12T12:33:45.046Z,49414.03
2022-09-12T12:36:34.723Z,49412.03
2022-09-12T12:39:33.270Z,49424.00
2022-09-12T12:42:00.567Z,49422.00
2022-09-12T12:44:45.536Z,49449.91
2022-09-12T12:47:24.167Z,49408.06
2022-09-12T12:50:06.049Z,49408.06
2022-09-12T12:52:54.206Z,49416.03
2022-09-12T12:55:20.831Z,49414.03
2022-09-12T12:57:50.959Z,49433.97
2022-09-12T13:00:20.298Z,49449.91
2022-09-12T13:02:56.611Z,49426.00
2022-09-12T13:05:26.340Z,49392.09
2022-09-12T13:08:06.647Z,49402.06
2022-09-12T13:10:34.197Z,49388.13
2022-09-12T13:13:05.207Z,49404.06
2022-09-12T13:15:37.760Z,49402.06
2022-09-12T13:18:07.519Z,49408.06
2022-09-12T13:20:45.242Z,49384.13
2022-09-12T13:23:27.637Z,49394.09
2022-09-12T13:26:10.243Z,49376.16
2022-09-12T13:28:36.917Z,49388.13
2022-09-12T13:31:25.847Z,49346.25
2022-09-12T13:34:04.009Z,49302.41
2022-09-12T13:37:17.552Z,49328.31
2022-09-12T13:40:05.473Z,49352.22
2022-09-12T13:42:32.203Z,49344.25
2022-09-12T13:45:04.236Z,49368.19
2022-09-12T13:47:38.627Z,49368.19
2022-09-12T13:50:08.486Z,49350.25
2022-09-12T13:52:37.867Z,49360.22
2022-09-12T13:55:23.641Z,49350.25
2022-09-12T13:57:58.463Z,49384.13
2022-09-12T14:00:25.566Z,49356.22
2022-09-12T14:03:12.247Z,49304.41
2022-09-12T14:05:40.838Z,49366.19
2022-09-12T14:08:09.178Z,49382.13
2022-09-12T14:10:42.456Z,49364.19
2022-09-12T14:13:39.175Z,49332.31
2022-09-12T14:16:09.896Z,49330.31
2022-09-12T14:18:38.708Z,49368.19
2022-09-12T14:21:11.282Z,49356.22
2022-09-12T14:23:45.035Z,49362.19
2022-09-12T14:26:13.493Z,49356.22
2022-09-12T14:28:42.337Z,49382.13
2022-09-12T14:31:15.751Z,49326.31
2022-09-12T14:33:51.199Z,49332.31
2022-09-12T14:36:23.654Z,49372.16
2022-09-12T14:38:54.369Z,49340.28
2022-09-12T14:41:24.773Z,49304.41
2022-09-12T14:43:56.291Z,49352.22
2022-09-12T14:46:28.587Z,49346.25
2022-09-12T14:49:01.089Z,49348.25
2022-09-12T14:51:41.153Z,49356.22
2022-09-12T14:54:27.672Z,49328.31
2022-09-12T14:57:00.448Z,49338.28
2022-09-12T14:59:35.985Z,49342.28
2022-09-12T15:02:20.921Z,49308.38
2022-09-12T15:04:50.562Z,49322.34
2022-09-12T15:08:01.817Z,49300.41
2022-09-12T15:10:36.718Z,49348.25
2022-09-12T15:13:15.405Z,49336.28
2022-09-12T15:15:48.237Z,49346.25
2022-09-12T15:18:16.617Z,49356.22
2022-09-12T15:20:45.279Z,49304.41
2022-09-12T15:23:19.552Z,49336.28
2022-09-12T15:25:46.600Z,49316.34
2022-09-12T15:28:23.049Z,49292.44
2022-09-12T15:30:52.274Z,49320.34
2022-09-12T15:33:22.786Z,49340.28
2022-09-12T15:35:49.986Z,49302.41
2022-09-12T15:38:16.749Z,49304.41
2022-09-12T15:40:43.351Z,49312.38
2022-09-12T15:43:13.446Z,49300.41
2022-09-12T15:45:50.469Z,49284.47
2022-09-12T15:48:17.804Z,49260.53
2022-09-12T15:50:44.764Z,49310.38
2022-09-12T15:53:16.119Z,49296.41
2022-09-12T15:55:43.639Z,49286.44
2022-09-12T15:58:10.381Z,49276.50
2022-09-12T16:00:36.980Z,49308.38
2022-09-12T16:03:04.086Z,49306.38
2022-09-12T16:05:31.089Z,49260.53
2022-09-12T16:07:57.679Z,49268.50
2022-09-12T16:10:27.552Z,49304.41
2022-09-12T16:12:54.378Z,49258.53
2022-09-12T16:15:23.405Z,49350.25
2022-09-12T16:17:50.957Z,49268.50
2022-09-12T16:20:19.215Z,49282.47
2022-09-12T16:22:46.089Z,49280.47
2022-09-12T16:25:12.691Z,49284.47
2022-09-12T16:27:39.297Z,49264.53
2022-09-12T16:30:07.334Z,49252.56
2022-09-12T16:32:34.059Z,49290.44
2022-09-12T16:35:01.096Z,49300.41
2022-09-12T16:37:28.489Z,49342.28
2022-09-12T16:39:55.155Z,49346.25
2022-09-12T16:42:21.787Z,49344.25
2022-09-12T16:44:48.539Z,49356.22
2022-09-12T16:47:15.501Z,49372.16
2022-09-12T16:49:42.111Z,49390.09
2022-09-12T16:52:08.903Z,49380.13
2022-09-12T16:54:35.565Z,49368.19
2022-09-12T16:57:05.135Z,49392.09
2022-09-12T16:59:31.849Z,49388.13
2022-09-12T17:01:58.854Z,49340.28
2022-09-12T17:04:25.552Z,49384.13
2022-09-12T17:06:52.221Z,49376.16
2022-09-12T17:09:19.061Z,49394.09
2022-09-12T17:11:50.322Z,49372.16
2022-09-12T17:14:17.487Z,49394.09
2022-09-12T17:16:50.861Z,49374.16
2022-09-12T17:19:21.034Z,49406.06
2022-09-12T17:21:49.942Z,49400.06
2022-09-12T17:24:19.911Z,49420.00
2022-09-12T17:26:46.930Z,49424.00
2022-09-12T17:29:14.751Z,49420.00
2022-09-12T17:31:42.589Z,49426.00
2022-09-12T17:34:10.817Z,49400.06
2022-09-12T17:36:39.587Z,49441.94
2022-09-12T17:39:06.254Z,49449.91
2022-09-12T17:41:33.087Z,49435.97
2022-09-12T17:44:01.369Z,49420.00
2022-09-12T17:46:46.272Z,49463.88
2022-09-12T17:49:15.282Z,49463.88
2022-09-12T17:51:43.655Z,49443.94
2022-09-12T17:54:18.803Z,49463.88
2022-09-12T17:56:47.379Z,49483.81
2022-09-12T17:59:17.327Z,49471.84
2022-09-12T18:02:02.420Z,49433.97
2022-09-12T18:04:29.061Z,49408.06
2022-09-12T18:06:57.603Z,49479.81
2022-09-12T18:09:28.018Z,49435.97
2022-09-12T18:11:55.250Z,49471.84
2022-09-12T18:14:22.138Z,49479.81
2022-09-12T18:16:49.277Z,49467.84
2022-09-12T18:19:16.422Z,49455.88
2022-09-12T18:21:43.205Z,49471.84
2022-09-12T18:24:11.343Z,49481.81
2022-09-12T18:26:38.043Z,49461.88
2022-09-12T18:29:04.907Z,49459.88
2022-09-12T18:31:31.730Z,49493.75
2022-09-12T18:34:02.654Z,49445.94
2022-09-12T18:36:30.554Z,49441.94
2022-09-12T18:38:58.782Z,49523.66
2022-09-12T18:41:26.285Z,49483.81
2022-09-12T18:43:57.775Z,49455.88
2022-09-12T18:46:25.366Z,49499.75
2022-09-12T18:48:52.034Z,49487.78
2022-09-12T18:51:25.372Z,49519.69
2022-09-12T18:53:54.874Z,49535.63
2022-09-12T18:56:23.499Z,49503.72
2022-09-12T18:58:52.447Z,49491.78
2022-09-12T19:01:24.815Z,49515.69
2022-09-12T19:03:52.628Z,49519.69
2022-09-12T19:06:20.309Z,49479.81
2022-09-12T19:08:48.754Z,49497.75
2022-09-12T19:11:16.310Z,49499.75
2022-09-12T19:13:44.960Z,49531.63
2022-09-12T19:16:14.793Z,49537.63
2022-09-12T19:18:42.147Z,49539.63
2022-09-12T19:21:14.610Z,49503.72
2022-09-12T19:23:41.676Z,49523.66
2022-09-12T19:26:14.300Z,49507.72
2022-09-12T19:28:41.259Z,49501.75
2022-09-12T19:31:11.346Z,49507.72
2022-09-12T19:33:38.526Z,49507.72
2022-09-12T19:36:17.575Z,49491.78
2022-09-12T19:38:54.769Z,49507.72
2022-09-12T19:41:21.646Z,49499.75
2022-09-12T19:43:48.233Z,49535.63
2022-09-12T19:46:20.499Z,49535.63
2022-09-12T19:48:47.794Z,49511.72
2022-09-12T19:51:15.626Z,49531.63
2022-09-12T19:53:42.616Z,49511.72
2022-09-12T19:56:11.852Z,49553.56
2022-09-12T19:58:41.470Z,49493.75
2022-09-12T20:01:14.461Z,49515.69
2022-09-12T20:03:41.785Z,49521.69
2022-09-12T20:06:11.067Z,49499.75
2022-09-12T20:08:39.973Z,49523.66
2022-09-12T20:11:07.566Z,49511.72
2022-09-12T20:13:34.544Z,49535.63
2022-09-12T20:16:22.119Z,49541.59
2022-09-12T20:18:54.244Z,49505.72
2022-09-12T20:21:25.345Z,49549.59
2022-09-12T20:23:52.205Z,49547.59
2022-09-12T20:26:20.300Z,49497.75
2022-09-12T20:28:47.164Z,49529.66
2022-09-12T20:31:15.459Z,49515.69
2022-09-12T20:33:42.463Z,49555.56
2022-09-12T20:36:16.126Z,49543.59
2022-09-12T20:38:57.521Z,49525.66
2022-09-12T20:41:25.694Z,49549.59
2022-09-12T20:43:53.554Z,49515.69
2022-09-12T20:46:22.162Z,49499.75
2022-09-12T20:48:50.540Z,49525.66
2022-09-12T20:51:18.072Z,49561.53
2022-09-12T20:53:44.720Z,49541.59
2022-09-12T20:56:12.323Z,49529.66
2022-09-12T20:58:43.184Z,49535.63
2022-09-12T21:01:12.312Z,49531.63
2022-09-12T21:03:40.083Z,49525.66
2022-09-12T21:06:07.482Z,49571.50
2022-09-12T21:08:34.446Z,49523.66
2022-09-12T21:11:01.218Z,49571.50
2022-09-12T21:13:28.075Z,49539.63
2022-09-12T21:15:59.272Z,49551.56
2022-09-12T21:18:26.365Z,49559.56
2022-09-12T21:20:54.184Z,49523.66
2022-09-12T21:23:21.229Z,49539.63
2022-09-12T21:25:52.459Z,49555.56
2022-09-12T21:28:20.182Z,49543.59
2022-09-12T21:30:50.628Z,49565.53
2022-09-12T21:33:18.823Z,49561.53
2022-09-12T21:35:45.878Z,49551.56
2022-09-12T21:38:12.492Z,49569.50
2022-09-12T21:40:39.074Z,49525.66
2022-09-12T21:43:09.220Z,49543.59
2022-09-12T21:45:38.508Z,49559.56
2022-09-12T21:48:05.225Z,49525.66
2022-09-12T21:50:31.798Z,49519.69
2022-09-12T21:52:58.410Z,49563.53
2022-09-12T21:55:27.116Z,49563.53
2022-09-12T21:57:54.820Z,49587.47
2022-09-12T22:00:21.744Z,49555.56
2022-09-12T22:02:49.135Z,49515.69
2022-09-12T22:05:17.218Z,49583.47
2022-09-12T22:07:44.277Z,49569.50
2022-09-12T22:10:11.445Z,49559.56
2022-09-12T22:12:39.287Z,49543.59
2022-09-12T22:15:29.315Z,49563.53
2022-09-12T22:17:55.355Z,49521.69
2022-09-12T22:20:21.975Z,49559.56
2022-09-12T22:23:06.996Z,49535.63
2022-09-12T22:25:33.659Z,49543.59
2022-09-12T22:28:00.292Z,49575.50
2022-09-12T22:30:27.355Z,49571.50
2022-09-12T22:32:54.045Z,49547.59
2022-09-12T22:35:21.040Z,49535.63
2022-09-12T22:37:47.933Z,49559.56
2022-09-12T22:40:15.766Z,49523.66
2022-09-12T22:42:42.437Z,49559.56
2022-09-12T22:45:09.660Z,49575.50
2022-09-12T22:47:36.341Z,49545.59
2022-09-12T22:50:03.189Z,49549.59
2022-09-12T22:52:29.848Z,49557.56
2022-09-12T22:54:57.265Z,49543.59
2022-09-12T22:57:23.882Z,49563.53
2022-09-12T22:59:50.488Z,49563.53
2022-09-12T23:02:17.120Z,49535.63
2022-09-12T23:04:43.890Z,49531.63
2022-09-12T23:07:11.044Z,49543.59
2022-09-12T23:09:37.630Z,49555.56
2022-09-12T23:12:04.502Z,49543.59
2022-09-12T23:14:31.121Z,49543.59
2022-09-12T23:16:57.698Z,49575.50
2022-09-12T23:19:24.358Z,49545.59
2022-09-12T23:21:51.075Z,49559.56
2022-09-12T23:24:17.915Z,49559.56
2022-09-12T23:26:44.567Z,49567.53
2022-09-12T23:29:11.433Z,49557.56
2022-09-12T23:31:38.167Z,49583.47
2022-09-12T23:34:06.153Z,49551.56
2022-09-12T23:36:33.432Z,49557.56
2022-09-12T23:39:00.254Z,49563.53
2022-09-12T23:41:26.964Z,49567.53
2022-09-12T23:43:53.772Z,49577.50
2022-09-12T23:46:21.296Z,49565.53
2022-09-12T23:48:48.234Z,49569.50
2022-09-12T23:51:15.524Z,49567.53
2022-09-12T23:53:42.305Z,49581.47
2022-09-12T23:56:09.265Z,49565.53
2022-09-12T23:58:36.058Z,49563.53
